createdAt,value
2018-01-15T00:01:33.527Z,23.33
2018-01-15T00:03:59.556Z,20.50
2018-01-15T00:06:25.609Z,20.17
2018-01-15T00:08:51.664Z,19.63
2018-01-15T00:11:17.681Z,15.50
2018-01-15T00:13:43.760Z,20.03
2018-01-15T00:16:09.912Z,18.30
2018-01-15T00:18:35.876Z,17.17
2018-01-15T00:21:01.916Z,21.57
2018-01-15T00:23:27.942Z,22.00
2018-01-15T00:25:53.863Z,26.43
2018-01-15T00:28:19.931Z,15.70
2018-01-15T00:30:45.984Z,18.20
2018-01-15T00:33:12.053Z,22.33
2018-01-15T00:35:38.057Z,17.30
2018-01-15T00:38:04.127Z,19.60
2018-01-15T00:40:30.164Z,19.90
2018-01-15T00:42:56.248Z,15.43
2018-01-15T00:45:22.288Z,18.57
2018-01-15T00:47:48.321Z,18.00
2018-01-15T00:50:14.260Z,18.97
2018-01-15T00:52:40.256Z,18.07
2018-01-15T00:55:06.330Z,20.50
2018-01-15T00:57:32.384Z,17.27
2018-01-15T00:59:58.400Z,18.27
2018-01-15T01:02:24.442Z,18.30
2018-01-15T01:04:50.455Z,18.20
2018-01-15T01:07:16.461Z,19.37
2018-01-15T01:09:42.507Z,19.10
2018-01-15T01:12:08.536Z,19.00
2018-01-15T01:14:34.552Z,19.17
2018-01-15T01:17:00.621Z,16.53
2018-01-15T01:19:26.616Z,15.67
2018-01-15T01:21:52.625Z,16.43
2018-01-15T01:24:18.732Z,17.60
2018-01-15T01:26:51.676Z,18.60
2018-01-15T01:29:18.093Z,16.33
2018-01-15T01:31:44.119Z,17.20
2018-01-15T01:34:10.117Z,16.73
2018-01-15T01:36:36.127Z,17.50
2018-01-15T01:39:02.153Z,19.37
2018-01-15T01:41:28.169Z,20.90
2018-01-15T01:43:54.255Z,19.23
2018-01-15T01:46:20.304Z,15.07
2018-01-15T01:48:57.589Z,15.57
2018-01-15T01:51:23.607Z,18.17
2018-01-15T01:53:49.664Z,26.20
2018-01-15T01:56:15.705Z,21.70
2018-01-15T01:58:41.721Z,19.83
2018-01-15T02:01:07.763Z,20.93
2018-01-15T02:03:33.796Z,22.63
2018-01-15T02:05:59.856Z,17.37
2018-01-15T02:08:25.865Z,17.63
2018-01-15T02:10:51.905Z,19.97
2018-01-15T02:13:17.936Z,17.80
2018-01-15T02:15:43.965Z,20.53
2018-01-15T02:18:09.984Z,18.40
2018-01-15T02:20:36.041Z,18.47
2018-01-15T02:23:02.092Z,19.67
2018-01-15T02:25:28.164Z,20.70
2018-01-15T02:27:54.164Z,18.70
2018-01-15T02:30:20.161Z,18.90
2018-01-15T02:32:46.195Z,15.07
2018-01-15T02:35:12.230Z,19.10
2018-01-15T02:37:38.232Z,19.23
2018-01-15T02:40:04.357Z,17.50
2018-01-15T02:42:30.356Z,21.27
2018-01-15T02:44:57.014Z,19.50
2018-01-15T02:47:23.026Z,22.30
2018-01-15T02:49:49.055Z,14.87
2018-01-15T02:52:15.099Z,18.03
2018-01-15T02:54:41.091Z,16.90
2018-01-15T02:57:07.184Z,17.27
2018-01-15T02:59:33.140Z,17.83
2018-01-15T03:01:59.177Z,23.23
2018-01-15T03:04:25.569Z,20.10
2018-01-15T03:06:51.560Z,17.53
2018-01-15T03:09:17.587Z,20.10
2018-01-15T03:11:43.596Z,15.77
2018-01-15T03:14:09.686Z,15.40
2018-01-15T03:16:35.700Z,16.43
2018-01-15T03:19:01.817Z,16.50
2018-01-15T03:21:27.923Z,15.30
2018-01-15T03:23:53.913Z,17.00
2018-01-15T03:26:19.948Z,16.07
2018-01-15T03:28:46.029Z,16.67
2018-01-15T03:31:12.044Z,15.97
2018-01-15T03:33:38.078Z,21.00
2018-01-15T03:36:04.100Z,17.77
2018-01-15T03:38:30.113Z,22.00
2018-01-15T03:40:56.220Z,18.20
2018-01-15T03:43:22.268Z,15.83
2018-01-15T03:45:48.295Z,18.33
2018-01-15T03:48:14.344Z,17.97
2018-01-15T03:50:40.392Z,22.33
2018-01-15T03:53:06.432Z,17.80
2018-01-15T03:55:32.465Z,25.07
2018-01-15T03:57:58.463Z,21.63
2018-01-15T04:00:24.492Z,23.50
2018-01-15T04:02:50.492Z,20.03
2018-01-15T04:05:16.481Z,18.20
2018-01-15T04:07:42.513Z,17.37
2018-01-15T04:10:08.512Z,19.27
2018-01-15T04:12:34.777Z,16.53
2018-01-15T04:15:00.795Z,16.80
2018-01-15T04:17:26.777Z,15.53
2018-01-15T04:19:52.793Z,16.87
2018-01-15T04:22:18.784Z,21.37
2018-01-15T04:24:44.815Z,19.77
2018-01-15T04:27:10.842Z,18.43
2018-01-15T04:29:36.864Z,16.83
2018-01-15T04:32:02.887Z,16.17
2018-01-15T04:34:28.909Z,15.70
2018-01-15T04:36:54.965Z,18.43
2018-01-15T04:39:21.005Z,22.60
2018-01-15T04:41:47.016Z,17.23
2018-01-15T04:44:13.061Z,18.77
2018-01-15T04:46:39.100Z,15.17
2018-01-15T04:49:05.296Z,19.93
2018-01-15T04:51:31.280Z,16.10
2018-01-15T04:53:57.391Z,17.63
2018-01-15T04:56:23.420Z,20.33
2018-01-15T04:58:49.409Z,17.53
2018-01-15T05:01:15.419Z,18.63
2018-01-15T05:03:41.336Z,24.60
2018-01-15T05:06:07.372Z,19.53
2018-01-15T05:08:33.444Z,21.27
2018-01-15T05:10:59.424Z,16.10
2018-01-15T05:13:25.372Z,16.00
2018-01-15T05:15:51.384Z,16.87
2018-01-15T05:18:17.428Z,25.37
2018-01-15T05:20:43.421Z,21.07
2018-01-15T05:23:09.477Z,19.80
2018-01-15T05:25:35.492Z,21.50
2018-01-15T05:28:01.534Z,21.67
2018-01-15T05:30:27.566Z,23.33
2018-01-15T05:32:53.608Z,23.83
2018-01-15T05:35:19.655Z,20.13
2018-01-15T05:37:45.672Z,22.07
2018-01-15T05:40:12.528Z,22.20
2018-01-15T05:42:38.537Z,20.40
2018-01-15T05:45:04.625Z,23.17
2018-01-15T05:47:30.696Z,19.20
2018-01-15T05:49:56.975Z,21.83
2018-01-15T05:52:22.992Z,22.63
2018-01-15T05:54:49.032Z,21.93
2018-01-15T05:57:15.119Z,24.03
2018-01-15T05:59:41.124Z,23.50
2018-01-15T06:02:07.172Z,21.30
2018-01-15T06:04:33.201Z,22.10
2018-01-15T06:06:59.201Z,19.97
2018-01-15T06:09:25.232Z,24.47
2018-01-15T06:11:51.288Z,18.40
2018-01-15T06:14:17.237Z,26.20
2018-01-15T06:16:43.265Z,27.00
2018-01-15T06:19:09.321Z,22.27
2018-01-15T06:21:35.396Z,20.57
2018-01-15T06:24:01.445Z,24.97
2018-01-15T06:26:27.476Z,23.40
2018-01-15T06:28:53.496Z,23.13
2018-01-15T06:31:19.485Z,25.77
2018-01-15T06:33:45.637Z,32.13
2018-01-15T06:36:11.660Z,29.70
2018-01-15T06:38:37.691Z,28.77
2018-01-15T06:41:03.756Z,28.23
2018-01-15T06:43:29.797Z,31.60
2018-01-15T06:45:55.793Z,24.40
2018-01-15T06:48:21.805Z,25.57
2018-01-15T06:50:47.825Z,29.07
2018-01-15T06:53:14.021Z,30.83
2018-01-15T06:55:40.025Z,30.40
2018-01-15T06:58:06.085Z,24.87
2018-01-15T07:00:32.107Z,25.27
2018-01-15T07:02:58.181Z,27.70
2018-01-15T07:05:24.260Z,32.60
2018-01-15T07:07:50.456Z,27.07
2018-01-15T07:10:16.432Z,27.73
2018-01-15T07:12:42.457Z,25.93
2018-01-15T07:15:15.357Z,28.30
2018-01-15T07:17:41.366Z,25.40
2018-01-15T07:20:07.377Z,26.27
2018-01-15T07:22:33.529Z,26.40
2018-01-15T07:24:59.552Z,27.57
2018-01-15T07:27:25.572Z,27.20
2018-01-15T07:29:51.659Z,28.83
2018-01-15T07:32:17.701Z,29.83
2018-01-15T07:34:43.771Z,27.10
2018-01-15T07:37:09.793Z,26.63
2018-01-15T07:39:35.929Z,29.90
2018-01-15T07:42:01.941Z,25.97
2018-01-15T07:44:27.925Z,26.63
2018-01-15T07:46:54.060Z,27.30
2018-01-15T07:49:20.085Z,24.67
2018-01-15T07:51:46.174Z,26.90
2018-01-15T07:54:12.995Z,28.20
2018-01-15T07:56:39.499Z,28.30
2018-01-15T07:59:06.581Z,20.87
2018-01-15T08:01:32.617Z,21.30
2018-01-15T08:03:58.624Z,24.13
2018-01-15T08:06:24.644Z,22.13
2018-01-15T08:08:50.676Z,17.60
2018-01-15T08:11:16.685Z,22.27
2018-01-15T08:13:42.717Z,21.73
2018-01-15T08:16:08.768Z,21.23
2018-01-15T08:18:34.795Z,19.90
2018-01-15T08:21:00.812Z,17.90
2018-01-15T08:23:26.836Z,20.80
2018-01-15T08:25:52.833Z,23.10
2018-01-15T08:28:18.861Z,23.57
2018-01-15T08:30:44.818Z,28.20
2018-01-15T08:33:10.765Z,22.67
2018-01-15T08:35:36.869Z,27.30
2018-01-15T08:38:02.892Z,20.47
2018-01-15T08:40:28.954Z,19.07
2018-01-15T08:42:55.005Z,20.70
2018-01-15T08:45:21.016Z,19.43
2018-01-15T08:47:47.045Z,19.93
2018-01-15T08:50:13.076Z,16.83
2018-01-15T08:52:39.081Z,18.23
2018-01-15T08:55:05.077Z,17.87
2018-01-15T08:57:31.136Z,26.40
2018-01-15T08:59:57.135Z,17.40
2018-01-15T09:02:23.165Z,23.93
2018-01-15T09:04:49.251Z,20.13
2018-01-15T09:07:15.288Z,20.40
2018-01-15T09:09:41.318Z,15.70
2018-01-15T09:12:07.339Z,19.73
2018-01-15T09:14:33.330Z,19.13
2018-01-15T09:16:59.360Z,19.17
2018-01-15T09:19:25.372Z,21.07
2018-01-15T09:21:51.411Z,22.07
2018-01-15T09:24:17.416Z,19.97
2018-01-15T09:26:43.440Z,27.13
2018-01-15T09:29:09.432Z,21.27
2018-01-15T09:31:35.500Z,19.80
2018-01-15T09:34:01.528Z,18.93
2018-01-15T09:36:27.548Z,21.50
2018-01-15T09:38:53.564Z,25.67
2018-01-15T09:41:19.541Z,22.17
2018-01-15T09:43:45.539Z,23.00
2018-01-15T09:46:11.526Z,24.13
2018-01-15T09:48:37.540Z,17.90
2018-01-15T09:51:03.613Z,16.70
2018-01-15T09:53:29.656Z,20.60
2018-01-15T09:55:55.674Z,20.80
2018-01-15T09:58:21.716Z,18.37
2018-01-15T10:00:47.789Z,16.80
2018-01-15T10:03:13.858Z,18.17
2018-01-15T10:05:39.980Z,21.60
2018-01-15T10:08:05.997Z,18.17
2018-01-15T10:10:32.005Z,18.20
2018-01-15T10:12:58.024Z,25.63
2018-01-15T10:15:24.064Z,23.50
2018-01-15T10:17:50.115Z,23.43
2018-01-15T10:20:16.253Z,17.77
2018-01-15T10:22:42.295Z,20.20
2018-01-15T10:25:08.389Z,19.73
2018-01-15T10:27:34.453Z,20.20
2018-01-15T10:30:00.548Z,20.53
2018-01-15T10:32:26.644Z,19.17
2018-01-15T10:34:52.640Z,20.83
2018-01-15T10:37:18.689Z,19.97
2018-01-15T10:39:44.708Z,25.57
2018-01-15T10:42:10.725Z,20.50
2018-01-15T10:44:36.764Z,20.90
2018-01-15T10:47:02.769Z,24.37
2018-01-15T10:49:28.745Z,19.67
2018-01-15T10:51:54.728Z,20.43
2018-01-15T10:54:20.808Z,30.73
2018-01-15T10:56:46.836Z,19.10
2018-01-15T10:59:12.900Z,19.43
2018-01-15T11:01:39.056Z,21.00
2018-01-15T11:04:05.065Z,21.30
2018-01-15T11:06:31.089Z,19.03
2018-01-15T11:08:57.089Z,19.50
2018-01-15T11:11:23.122Z,21.43
2018-01-15T11:13:49.184Z,17.87
2018-01-15T11:16:15.232Z,19.03
2018-01-15T11:18:41.266Z,16.37
2018-01-15T11:21:07.311Z,18.27
2018-01-15T11:23:33.304Z,23.27
2018-01-15T11:25:59.350Z,16.37
2018-01-15T11:28:25.356Z,19.50
2018-01-15T11:30:51.368Z,22.70
2018-01-15T11:33:17.425Z,18.50
2018-01-15T11:35:43.448Z,18.37
2018-01-15T11:38:09.443Z,18.83
2018-01-15T11:40:35.491Z,21.17
2018-01-15T11:43:01.525Z,19.80
2018-01-15T11:45:27.517Z,23.53
2018-01-15T11:47:53.573Z,19.57
2018-01-15T11:50:19.532Z,18.87
2018-01-15T11:52:45.544Z,20.90
2018-01-15T11:55:11.528Z,22.40
2018-01-15T11:57:37.558Z,20.97
2018-01-15T12:00:03.734Z,24.30
2018-01-15T12:02:29.858Z,22.83
2018-01-15T12:04:55.873Z,16.87
2018-01-15T12:07:21.896Z,20.83
2018-01-15T12:09:47.936Z,17.13
2018-01-15T12:12:13.955Z,20.23
2018-01-15T12:14:39.980Z,16.30
2018-01-15T12:25:51.064Z,17.37
2018-01-15T12:28:17.081Z,19.33
2018-01-15T12:30:43.100Z,18.43
2018-01-15T12:33:09.077Z,14.00
2018-01-15T12:35:35.081Z,23.40
2018-01-15T12:38:01.872Z,22.53
2018-01-15T12:40:27.912Z,18.10
2018-01-15T12:42:53.860Z,21.20
2018-01-15T12:45:19.901Z,20.03
2018-01-15T12:47:45.917Z,23.00
2018-01-15T12:50:11.945Z,19.40
2018-01-15T12:52:37.976Z,15.70
2018-01-15T12:55:04.143Z,18.40
2018-01-15T12:57:30.184Z,15.77
2018-01-15T12:59:56.125Z,17.73
2018-01-15T13:02:22.124Z,17.20
2018-01-15T13:04:48.133Z,17.70
2018-01-15T13:07:26.252Z,21.63
2018-01-15T13:09:52.258Z,17.83
2018-01-15T13:12:18.288Z,18.30
2018-01-15T13:14:44.320Z,22.63
2018-01-15T13:17:10.316Z,20.13
2018-01-15T13:19:36.937Z,17.57
2018-01-15T13:22:02.973Z,18.03
2018-01-15T13:24:28.984Z,17.97
2018-01-15T13:26:55.028Z,17.97
2018-01-15T13:29:21.125Z,19.43
2018-01-15T13:31:47.172Z,17.27
2018-01-15T13:34:13.106Z,17.97
2018-01-15T13:36:39.121Z,20.00
2018-01-15T13:39:05.132Z,18.07
2018-01-15T13:41:31.137Z,23.30
2018-01-15T13:43:57.137Z,20.80
2018-01-15T13:46:23.168Z,20.00
2018-01-15T13:48:49.194Z,17.10
2018-01-15T13:51:15.304Z,18.80
2018-01-15T13:53:41.305Z,22.93
2018-01-15T13:56:07.338Z,22.13
2018-01-15T13:58:33.367Z,19.30
2018-01-15T14:00:59.471Z,20.40
2018-01-15T14:03:25.494Z,21.90
2018-01-15T14:05:51.520Z,23.20
2018-01-15T14:08:17.610Z,22.17
2018-01-15T14:10:43.618Z,21.60
2018-01-15T14:13:09.667Z,27.43
2018-01-15T14:15:35.672Z,23.00
2018-01-15T14:18:01.617Z,21.00
2018-01-15T14:20:27.620Z,26.70
2018-01-15T14:22:53.637Z,24.73
2018-01-15T14:25:19.657Z,20.20
2018-01-15T14:27:45.701Z,24.03
2018-01-15T14:30:12.144Z,22.20
2018-01-15T14:32:38.116Z,23.27
2018-01-15T14:35:04.256Z,24.70
2018-01-15T14:37:30.208Z,24.20
2018-01-15T14:39:56.249Z,22.03
2018-01-15T14:42:22.280Z,23.60
2018-01-15T14:44:48.319Z,22.70
2018-01-15T14:47:14.341Z,25.63
2018-01-15T14:49:40.339Z,25.90
2018-01-15T14:52:06.391Z,21.30
2018-01-15T14:54:32.383Z,20.23
2018-01-15T14:56:58.336Z,21.07
2018-01-15T14:59:24.356Z,23.17
2018-01-15T15:01:50.404Z,21.27
2018-01-15T15:04:16.442Z,23.80
2018-01-15T15:06:42.449Z,20.07
2018-01-15T15:09:08.448Z,17.80
2018-01-15T15:11:34.480Z,23.07
2018-01-15T15:14:00.500Z,21.37
2018-01-15T15:16:26.583Z,22.17
2018-01-15T15:18:52.712Z,22.97
2018-01-15T15:21:18.770Z,23.53
2018-01-15T15:23:44.820Z,23.80
2018-01-15T15:26:10.845Z,21.90
2018-01-15T15:28:36.921Z,24.87
2018-01-15T15:31:02.938Z,20.30
2018-01-15T15:33:28.904Z,26.20
2018-01-15T15:35:54.996Z,20.80
2018-01-15T15:38:21.001Z,27.00
2018-01-15T15:40:47.069Z,24.20
2018-01-15T15:43:13.120Z,23.83
2018-01-15T15:45:39.204Z,22.60
2018-01-15T15:48:05.191Z,26.63
2018-01-15T15:50:31.212Z,29.13
2018-01-15T15:52:57.334Z,21.87
2018-01-15T15:55:23.390Z,22.23
2018-01-15T15:57:49.393Z,22.83
2018-01-15T16:00:15.463Z,25.07
2018-01-15T16:02:41.562Z,35.73
2018-01-15T16:05:07.720Z,27.70
2018-01-15T16:07:33.747Z,36.30
2018-01-15T16:09:59.781Z,18.20
2018-01-15T16:12:25.819Z,19.93
2018-01-15T16:14:51.905Z,23.37
2018-01-15T16:17:17.941Z,23.40
2018-01-15T16:19:43.985Z,23.80
2018-01-15T16:22:30.791Z,24.17
2018-01-15T16:24:56.813Z,22.53
2018-01-15T16:27:22.882Z,20.33
2018-01-15T16:29:48.923Z,20.13
2018-01-15T16:32:15.030Z,20.90
2018-01-15T16:34:41.143Z,19.23
2018-01-15T16:37:07.129Z,19.73
2018-01-15T16:39:33.200Z,19.73
2018-01-15T16:41:59.289Z,19.80
2018-01-15T16:44:25.343Z,24.30
2018-01-15T16:46:51.288Z,24.63
2018-01-15T16:49:17.306Z,23.77
2018-01-15T16:51:43.372Z,21.53
2018-01-15T16:54:09.344Z,20.57
2018-01-15T16:56:35.450Z,20.47
2018-01-15T16:59:01.520Z,21.40
2018-01-15T17:01:27.564Z,20.57
2018-01-15T17:03:53.618Z,24.07
2018-01-15T17:06:19.667Z,22.23
2018-01-15T17:08:45.825Z,20.23
2018-01-15T17:11:11.932Z,19.90
2018-01-15T17:13:37.964Z,20.47
2018-01-15T17:16:04.015Z,23.17
2018-01-15T17:18:30.096Z,21.93
2018-01-15T17:20:56.128Z,21.97
2018-01-15T17:23:22.231Z,21.17
2018-01-15T17:25:48.229Z,24.30
2018-01-15T17:28:14.264Z,22.07
2018-01-15T17:30:40.371Z,24.57
2018-01-15T17:33:06.503Z,24.13
2018-01-15T17:35:32.545Z,18.20
2018-01-15T17:37:58.648Z,20.40
2018-01-15T17:40:24.719Z,25.43
2018-01-15T17:42:50.890Z,23.83
2018-01-15T17:45:17.001Z,27.50
2018-01-15T17:47:43.456Z,23.13
2018-01-15T17:50:09.404Z,21.57
2018-01-15T17:52:36.613Z,20.50
2018-01-15T17:55:03.352Z,22.10
2018-01-15T17:57:29.441Z,20.37
2018-01-15T17:59:55.504Z,23.63
2018-01-15T18:02:21.634Z,25.47
2018-01-15T18:04:47.716Z,27.73
2018-01-15T18:07:13.762Z,24.97
2018-01-15T18:09:39.826Z,22.57
2018-01-15T18:12:06.884Z,21.30
2018-01-15T18:14:32.917Z,22.80
2018-01-15T18:16:58.935Z,24.00
2018-01-15T18:19:25.024Z,23.17
2018-01-15T18:21:51.076Z,22.87
2018-01-15T18:24:17.127Z,22.43
2018-01-15T18:26:43.198Z,22.73
2018-01-15T18:29:09.321Z,21.90
2018-01-15T18:31:35.333Z,24.80
2018-01-15T18:34:01.451Z,20.43
2018-01-15T18:36:27.525Z,20.27
2018-01-15T18:38:53.531Z,21.80
2018-01-15T18:41:19.579Z,22.60
2018-01-15T18:43:45.608Z,22.60
2018-01-15T18:46:11.634Z,18.40
2018-01-15T18:48:37.722Z,23.17
2018-01-15T18:51:03.819Z,23.50
2018-01-15T18:53:29.994Z,18.50
2018-01-15T18:55:56.009Z,16.53
2018-01-15T18:58:22.041Z,17.97
2018-01-15T19:00:48.109Z,19.37
2018-01-15T19:03:14.172Z,16.17
2018-01-15T19:05:40.241Z,16.40
2018-01-15T19:08:06.240Z,21.67
2018-01-15T19:10:32.370Z,17.93
2018-01-15T19:12:58.504Z,18.77
2018-01-15T19:15:24.518Z,21.70
2018-01-15T19:17:50.777Z,19.37
2018-01-15T19:20:16.792Z,23.30
2018-01-15T19:22:43.163Z,23.00
2018-01-15T19:25:09.219Z,21.00
2018-01-15T19:27:35.224Z,21.07
2018-01-15T19:30:01.365Z,22.47
2018-01-15T19:32:27.423Z,17.10
2018-01-15T19:34:54.278Z,15.60
2018-01-15T19:37:28.391Z,17.37
2018-01-15T19:39:54.497Z,20.03
2018-01-15T19:42:20.689Z,21.07
2018-01-15T19:44:52.780Z,17.87
2018-01-15T19:47:24.956Z,16.00
2018-01-15T19:49:57.005Z,18.60
2018-01-15T19:52:29.036Z,21.97
2018-01-15T19:55:01.194Z,16.67
2018-01-15T19:57:33.372Z,19.13
2018-01-15T20:00:05.608Z,18.83
2018-01-15T20:02:37.997Z,17.00
2018-01-15T20:08:13.296Z,16.67
2018-01-15T20:10:43.334Z,23.60
2018-01-15T20:13:09.397Z,15.73
2018-01-15T20:15:35.493Z,17.20
2018-01-15T20:18:01.615Z,17.60
2018-01-15T20:20:27.605Z,16.77
2018-01-15T20:22:53.699Z,19.57
2018-01-15T20:25:19.751Z,20.33
2018-01-15T20:27:45.768Z,20.77
2018-01-15T20:30:11.891Z,25.50
2018-01-15T20:32:37.975Z,21.10
2018-01-15T20:35:04.039Z,19.87
2018-01-15T20:37:30.046Z,17.97
2018-01-15T20:39:56.085Z,19.40
2018-01-15T20:42:22.208Z,18.40
2018-01-15T20:44:48.225Z,16.93
2018-01-15T20:47:14.284Z,18.07
2018-01-15T20:49:40.324Z,19.87
2018-01-15T20:52:06.332Z,20.43
2018-01-15T20:54:32.438Z,23.33
2018-01-15T20:56:58.535Z,20.27
2018-01-15T20:59:24.561Z,20.12
2018-01-15T21:01:50.572Z,18.17
2018-01-15T21:04:16.716Z,23.77
2018-01-15T21:06:42.732Z,17.80
2018-01-15T21:09:08.772Z,18.80
2018-01-15T21:11:34.835Z,19.47
2018-01-15T21:14:00.852Z,24.97
2018-01-15T21:16:28.132Z,19.10
2018-01-15T21:18:54.177Z,16.97
2018-01-15T21:21:20.256Z,21.93
2018-01-15T21:23:46.392Z,18.53
2018-01-15T21:26:12.483Z,21.87
2018-01-15T21:28:38.579Z,24.40
2018-01-15T21:31:04.591Z,23.33
2018-01-15T21:33:30.774Z,24.43
2018-01-15T21:36:03.786Z,22.90
2018-01-15T21:38:29.857Z,23.90
2018-01-15T21:40:55.940Z,30.57
2018-01-15T21:43:21.959Z,25.47
2018-01-15T21:45:48.008Z,43.67
2018-01-15T21:48:14.003Z,33.57
2018-01-15T21:50:40.042Z,25.30
2018-01-15T21:53:06.064Z,23.67
2018-01-15T21:55:32.106Z,28.60
2018-01-15T21:57:58.149Z,32.77
2018-01-15T22:00:24.195Z,27.40
2018-01-15T22:02:50.132Z,27.87
2018-01-15T22:05:16.129Z,26.23
2018-01-15T22:07:42.177Z,29.20
2018-01-15T22:10:08.208Z,32.60
2018-01-15T22:12:34.273Z,31.33
2018-01-15T22:15:00.284Z,25.93
2018-01-15T22:17:26.311Z,30.67
2018-01-15T22:19:52.369Z,26.13
2018-01-15T22:22:18.382Z,28.83
2018-01-15T22:24:44.459Z,26.70
2018-01-15T22:27:10.512Z,23.20
2018-01-15T22:29:36.557Z,25.50
2018-01-15T22:32:02.595Z,24.67
2018-01-15T22:34:28.722Z,24.30
2018-01-15T22:36:54.776Z,28.97
2018-01-15T22:39:20.783Z,18.70
2018-01-15T22:41:46.847Z,23.23
2018-01-15T22:44:12.840Z,26.10
2018-01-15T22:46:38.825Z,25.87
2018-01-15T22:49:04.850Z,22.50
2018-01-15T22:51:30.876Z,20.93
2018-01-15T22:53:56.901Z,23.30
2018-01-15T22:56:22.889Z,22.23
2018-01-15T22:58:48.979Z,20.07
2018-01-15T23:01:15.084Z,26.57
2018-01-15T23:03:41.133Z,22.17
2018-01-15T23:06:07.652Z,14.03
2018-01-15T23:08:33.701Z,19.30
2018-01-15T23:10:59.708Z,15.83
2018-01-15T23:13:25.728Z,17.40
2018-01-15T23:15:51.776Z,18.83
2018-01-15T23:18:17.835Z,16.43
2018-01-15T23:20:43.859Z,13.30
2018-01-15T23:23:09.856Z,15.73
2018-01-15T23:25:35.884Z,14.13
2018-01-15T23:28:01.885Z,14.20
2018-01-15T23:30:27.982Z,15.20
2018-01-15T23:32:53.988Z,13.50
2018-01-15T23:35:20.032Z,15.90
2018-01-15T23:37:46.056Z,16.60
2018-01-15T23:40:12.284Z,10.60
2018-01-15T23:42:38.346Z,17.30
2018-01-15T23:45:04.430Z,13.30
2018-01-15T23:47:30.416Z,10.83
2018-01-15T23:49:56.398Z,14.17
2018-01-15T23:52:22.383Z,12.53
2018-01-15T23:54:48.406Z,11.57
2018-01-15T23:57:14.363Z,13.30
2018-01-15T23:59:40.356Z,12.17
